Time;durP1;ratioP1;P1;durP2;ratioP2;P2;SDS_P1;SDS_P2;PMS_P1;PMS_P2;Temp;Humidity;BMP_temperature;BMP_pressure;BME280_temperature;BME280_humidity;BME280_pressure;Samples;Min_cycle;Max_cycle;Signal;HPM_P1;HPM_P2
2022/12/26 00:01:25;;;;;;;0.20;0.20;;;11.40;99.90;;;11.49;97.59;99915.22;4986787;28;20307;-78
2022/12/26 00:03:52;;;;;;;0.00;0.00;;;11.50;99.90;;;11.60;96.85;99924.00;4981796;28;20291;-78
2022/12/26 00:06:24;;;;;;;0.00;0.00;;;11.50;99.90;;;11.55;96.85;99894.88;4982928;28;20231;-78
2022/12/26 00:08:51;;;;;;;0.00;0.00;;;11.50;99.90;;;11.55;96.38;99896.66;4990723;28;20240;-78
2022/12/26 00:11:20;;;;;;;0.35;0.35;;;11.50;99.90;;;11.59;96.26;99889.59;4975464;28;20253;-78
2022/12/26 00:13:51;;;;;;;0.00;0.00;;;11.50;99.90;;;11.55;96.22;99881.66;4985583;28;20229;-78
2022/12/26 00:16:20;;;;;;;0.30;0.30;;;11.50;99.90;;;11.46;96.34;99872.84;4989459;28;20329;-78
2022/12/26 00:18:48;;;;;;;0.10;0.10;;;11.40;99.90;;;11.52;96.02;99873.72;4981353;28;20319;-78
2022/12/26 00:21:17;;;;;;;0.10;0.10;;;11.40;99.90;;;11.54;95.58;99864.00;4980361;28;20232;-78
2022/12/26 00:23:45;;;;;;;0.00;0.00;;;11.50;99.90;;;11.48;95.47;99850.78;4984160;28;20311;-78
2022/12/26 00:26:19;;;;;;;0.00;0.00;;;11.40;99.90;;;11.43;95.51;99854.34;4988968;28;20228;-78
2022/12/26 00:28:47;;;;;;;0.10;0.10;;;11.40;99.90;;;11.40;96.04;99868.47;4976228;28;20257;-77
2022/12/26 00:31:22;;;;;;;0.00;0.00;;;11.40;99.90;;;11.35;96.04;99864.94;4975635;28;20260;-79
2022/12/26 00:33:49;;;;;;;0.10;0.10;;;11.30;99.90;;;11.39;96.27;99873.75;4989726;28;20611;-78
2022/12/26 00:36:21;;;;;;;0.52;0.52;;;11.40;99.90;;;11.32;96.27;99869.38;4989052;28;20228;-77
2022/12/26 00:38:49;;;;;;;0.00;0.00;;;11.30;99.90;;;11.31;96.53;99868.50;4995980;28;20240;-77
2022/12/26 00:41:19;;;;;;;0.00;0.00;;;11.30;99.90;;;11.26;96.69;99866.75;4978937;28;20224;-77
2022/12/26 00:43:47;;;;;;;0.00;0.00;;;11.30;99.90;;;11.31;96.71;99870.25;4996723;28;20252;-79
2022/12/26 00:46:15;;;;;;;0.00;0.00;;;11.30;99.90;;;11.19;97.11;99864.13;4994624;28;20240;-79
2022/12/26 00:48:42;;;;;;;0.00;0.00;;;11.20;99.90;;;11.17;97.46;99875.59;4983494;28;20243;-79
2022/12/26 00:51:10;;;;;;;0.00;0.00;;;11.10;99.90;;;11.22;97.45;99868.53;4986426;28;20276;-79
2022/12/26 00:53:37;;;;;;;0.10;0.10;;;11.10;99.90;;;11.22;97.23;99869.41;4978293;28;20229;-79
2022/12/26 00:56:05;;;;;;;0.10;0.10;;;11.20;99.90;;;11.19;97.31;99856.19;4989862;28;20318;-79
2022/12/26 00:58:32;;;;;;;0.05;0.05;;;11.10;99.90;;;11.22;97.09;99845.59;4996277;28;20244;-79
2022/12/26 01:01:18;;;;;;;0.00;0.00;;;11.20;99.90;;;11.28;96.99;99857.91;4996673;28;20263;-79
2022/12/26 01:03:47;;;;;;;0.10;0.10;;;11.20;99.90;;;11.19;97.25;99850.00;4977108;28;20287;-79
2022/12/26 01:06:15;;;;;;;0.10;0.10;;;11.10;99.90;;;11.22;97.31;99853.53;4985572;28;20251;-79
2022/12/26 01:08:42;;;;;;;0.10;0.10;;;11.20;99.90;;;11.32;97.19;99859.66;4994582;28;20232;-79
2022/12/26 01:11:12;;;;;;;0.00;0.00;;;11.20;99.90;;;11.32;97.21;99850.84;4997340;28;20259;-78
2022/12/26 01:13:40;;;;;;;0.00;0.00;;;11.20;99.90;;;11.27;97.04;99834.97;4996244;28;20282;-79
2022/12/26 01:16:08;;;;;;;0.03;0.03;;;11.20;99.90;;;11.34;97.19;99843.78;4997164;28;20255;-79
2022/12/26 01:18:35;;;;;;;0.10;0.10;;;11.20;99.90;;;11.19;97.44;99823.53;4996345;28;20262;-79
2022/12/26 01:21:07;;;;;;;0.10;0.10;;;11.20;99.90;;;11.35;97.19;99850.84;4997161;28;20302;-79
2022/12/26 01:23:34;;;;;;;0.10;0.10;;;11.20;99.90;;;11.29;97.79;99853.50;4995286;28;20232;-79
2022/12/26 01:26:06;;;;;;;0.00;0.00;;;11.20;99.90;;;11.39;97.31;99866.72;4981300;28;20225;-79
2022/12/26 01:28:48;;;;;;;0.00;0.00;;;11.30;99.90;;;11.32;97.44;99857.03;4994440;28;20252;-79
2022/12/26 01:31:16;;;;;;;0.10;0.10;;;11.30;99.90;;;11.40;97.18;99860.53;4991700;28;20681;-78
2022/12/26 01:33:44;;;;;;;0.00;0.00;;;11.30;99.90;;;11.45;96.84;99861.38;4988651;28;20723;-79
2022/12/26 01:36:11;;;;;;;0.00;0.00;;;11.40;99.90;;;11.45;96.48;99866.69;4978761;28;20228;-79
2022/12/26 01:38:38;;;;;;;0.00;0.00;;;11.40;99.90;;;11.53;96.73;99878.13;4992359;28;20342;-79
2022/12/26 01:41:21;;;;;;;0.00;0.00;;;11.40;99.90;;;11.47;96.53;99858.72;4996200;28;20255;-79
2022/12/26 01:43:59;;;;;;;0.20;0.20;;;11.40;99.90;;;11.47;96.42;99849.03;4993680;28;20240;-79
2022/12/26 01:46:43;;;;;;;0.00;0.00;;;11.50;99.90;;;11.51;96.23;99853.41;4979403;28;20236;-79
2022/12/26 01:49:30;;;;;;;0.00;0.00;;;11.50;99.90;;;11.37;96.41;99833.19;4973240;28;20283;-79
2022/12/26 01:52:03;;;;;;;0.68;0.65;;;11.40;99.90;;;11.34;97.21;99835.84;4985749;28;20416;-79
2022/12/26 01:54:36;;;;;;;0.35;0.22;;;11.30;99.90;;;11.47;96.91;99850.78;4973718;28;20260;-79
2022/12/26 01:57:19;;;;;;;0.10;0.10;;;11.40;99.90;;;11.49;96.56;99851.66;4989768;28;20235;-79
2022/12/26 01:59:47;;;;;;;0.30;0.30;;;11.40;99.90;;;11.47;96.16;99845.50;4993243;28;20251;-79
2022/12/26 02:02:15;;;;;;;0.10;0.10;;;11.40;99.90;;;11.42;96.54;99850.81;4984309;28;20324;-79
2022/12/26 02:07:38;;;;;;;0.00;0.00;;;11.40;99.90;;;11.35;97.37;99842.91;4972965;28;20336;-79
2022/12/26 02:10:17;;;;;;;0.00;0.00;;;11.30;99.90;;;11.16;97.71;99837.66;4977328;28;20240;-79
2022/12/26 02:12:44;;;;;;;0.00;0.00;;;11.20;99.90;;;11.12;98.87;99861.50;4992577;28;20220;-79
2022/12/26 02:15:15;;;;;;;0.00;0.00;;;11.10;99.90;;;11.15;99.24;99867.66;4992772;28;20693;-79
2022/12/26 02:17:43;;;;;;;0.00;0.00;;;11.10;99.90;;;10.97;99.83;99854.47;4992909;28;20312;-78
2022/12/26 02:20:23;;;;;;;0.00;0.00;;;11.00;99.90;;;11.03;100.00;99874.75;4992507;28;20263;-78
2022/12/26 02:23:11;;;;;;;0.30;0.30;;;11.00;99.90;;;11.19;99.85;99887.06;4980029;28;20236;-77
2022/12/26 02:25:50;;;;;;;0.45;0.45;;;11.10;99.90;;;11.39;100.00;99897.59;4981593;28;20310;-78
2022/12/26 02:28:53;;;;;;;0.00;0.00;;;11.20;99.90;;;11.20;99.61;99868.53;4992006;28;20275;-78
2022/12/26 02:31:40;;;;;;;0.10;0.10;;;11.20;99.90;;;11.07;100.00;99881.78;4992944;28;20224;-78
2022/12/26 02:34:52;;;;;;;0.00;0.00;;;11.10;99.90;;;11.10;100.00;99876.50;4977461;28;20228;-78
2022/12/26 02:37:51;;;;;;;0.17;0.17;;;11.10;99.90;;;11.51;99.42;99910.78;4966630;28;20240;-78
2022/12/26 02:40:51;;;;;;;0.10;0.10;;;11.40;99.90;;;11.66;98.28;99893.97;4966812;28;20233;-78
2022/12/26 02:47:01;;;;;;;0.10;0.10;;;11.60;99.90;;;11.15;99.24;99846.50;4981712;28;20244;-78
2022/12/26 02:47:18;;;;;;;0.00;0.00;;;11.20;99.90;;;11.80;97.67;99886.91;4987552;28;20286;-78
2022/12/26 03:14:23;;;;;;;0.00;0.00;;;11.30;99.90;;;11.00;100.00;99808.59;4986306;28;20249;-78
2022/12/26 03:17:20;;;;;;;0.00;0.00;;;11.00;99.90;;;10.84;100.00;99816.56;4972303;28;20252;-77
2022/12/26 03:19:58;;;;;;;0.10;0.10;;;10.90;99.90;;;10.80;100.00;99820.09;4971758;28;20245;-78
2022/12/26 03:23:07;;;;;;;0.00;0.00;;;10.80;99.90;;;10.96;100.00;99823.59;4972198;28;20252;-78
2022/12/26 03:28:46;;;;;;;0.00;0.00;;;10.80;99.90;;;10.74;100.00;99808.66;4975518;28;20244;-77
2022/12/26 03:31:16;;;;;;;0.00;0.00;;;10.80;99.90;;;10.85;100.00;99813.03;4975610;28;20582;-77
2022/12/26 03:36:49;;;;;;;0.10;0.10;;;10.80;99.90;;;10.86;100.00;99824.50;4973593;28;20236;-78
2022/12/26 04:20:25;;;;;;;0.00;0.00;;;10.40;99.90;;;10.48;100.00;99851.00;4981742;28;20241;-78
2022/12/26 04:46:25;;;;;;;0.00;0.00;;;10.40;99.90;;;10.45;100.00;99846.59;4970399;28;20669;-77
2022/12/26 04:51:39;;;;;;;0.10;0.10;;;10.40;99.90;;;10.57;100.00;99859.81;4970359;28;20709;-78
2022/12/26 04:54:07;;;;;;;0.00;0.00;;;10.50;99.90;;;10.53;100.00;99854.50;4983277;28;20294;-78
2022/12/26 04:56:34;;;;;;;0.00;0.00;;;10.50;99.90;;;10.55;100.00;99858.03;4991297;28;20291;-78
2022/12/26 04:59:01;;;;;;;0.10;0.10;;;10.50;99.90;;;10.72;100.00;99866.84;4985134;28;20298;-78
2022/12/26 05:09:57;;;;;;;0.10;0.10;;;10.60;99.90;;;10.68;100.00;99858.91;4979810;28;20294;-78
2022/12/26 05:12:24;;;;;;;0.10;0.10;;;10.60;99.90;;;10.71;100.00;99864.19;4989303;28;20699;-76
2022/12/26 05:14:51;;;;;;;0.05;0.05;;;10.60;99.90;;;10.68;100.00;99861.56;4990381;28;20232;-78
2022/12/26 05:28:42;;;;;;;0.10;0.10;;;10.60;99.90;;;10.64;100.00;99870.38;4977410;28;20332;-76
2022/12/26 05:31:16;;;;;;;0.00;0.00;;;10.60;99.90;;;10.87;100.00;99884.47;4991734;28;20664;-77
2022/12/26 05:36:49;;;;;;;0.00;0.00;;;10.80;99.90;;;10.87;100.00;99888.00;4976426;28;20247;-78
2022/12/26 05:39:16;;;;;;;0.00;0.00;;;10.80;99.90;;;10.91;100.00;99894.16;4976368;28;20253;-78
2022/12/26 05:41:43;;;;;;;0.00;0.00;;;10.80;99.90;;;10.89;100.00;99891.50;4994135;28;20236;-79
2022/12/26 05:44:11;;;;;;;0.00;0.00;;;10.80;99.90;;;10.69;100.00;99876.53;4994107;28;20228;-78
2022/12/26 05:46:38;;;;;;;0.00;0.00;;;10.70;99.90;;;11.15;100.00;99912.66;4993447;28;20678;-77
2022/12/26 05:49:05;;;;;;;0.10;0.10;;;11.00;99.90;;;11.11;100.00;99897.66;4989983;28;20236;-78
2022/12/26 05:51:33;;;;;;;0.10;0.10;;;11.00;99.90;;;11.07;100.00;99890.59;4982170;28;20237;-78
2022/12/26 05:54:00;;;;;;;0.00;0.00;;;11.00;99.90;;;11.27;100.00;99900.28;4988640;28;20623;-78
2022/12/26 05:56:28;;;;;;;0.00;0.00;;;11.20;99.90;;;11.13;100.00;99887.06;4990344;28;20284;-75
2022/12/26 05:58:59;;;;;;;0.00;0.00;;;11.10;99.90;;;11.23;100.00;99905.56;4979207;28;20236;-75
2022/12/26 06:01:28;;;;;;;0.10;0.10;;;11.10;99.90;;;11.05;100.00;99892.38;4988693;28;20685;-75
2022/12/26 06:03:58;;;;;;;0.00;0.00;;;11.00;99.90;;;10.92;100.00;99884.47;4991236;28;20232;-75
2022/12/26 06:06:26;;;;;;;0.08;0.08;;;10.90;99.90;;;10.77;100.00;99880.94;4985290;28;20229;-75
2022/12/26 06:08:55;;;;;;;0.00;0.00;;;10.80;99.90;;;10.80;100.00;99896.81;4977599;28;20233;-75
2022/12/26 06:11:25;;;;;;;0.00;0.00;;;10.80;99.90;;;10.67;100.00;99883.59;4986431;28;20229;-75
2022/12/26 06:13:53;;;;;;;0.10;0.10;;;10.60;99.90;;;10.63;100.00;99877.44;4987899;28;20759;-76
2022/12/26 06:16:20;;;;;;;0.40;0.40;;;10.60;99.90;;;10.64;100.00;99889.75;4978809;28;20582;-76
2022/12/26 06:18:48;;;;;;;0.10;0.10;;;10.60;99.90;;;10.46;100.00;99888.00;4985985;28;20243;-75
2022/12/26 06:21:18;;;;;;;0.10;0.10;;;10.50;99.90;;;10.60;100.00;99911.81;4983356;28;20279;-76
2022/12/26 06:23:46;;;;;;;0.00;0.00;;;10.50;99.90;;;10.65;100.00;99917.09;4980673;28;20259;-76
2022/12/26 06:26:13;;;;;;;0.10;0.10;;;10.60;99.90;;;10.68;100.00;99920.63;4989102;28;20228;-75
2022/12/26 06:28:42;;;;;;;0.10;0.10;;;10.60;99.90;;;10.71;100.00;99938.25;4992693;28;20259;-76
2022/12/26 06:31:14;;;;;;;0.00;0.00;;;10.60;99.90;;;10.78;100.00;99951.47;4992787;28;20244;-76
2022/12/26 06:33:42;;;;;;;0.10;0.10;;;10.70;99.90;;;10.80;100.00;99954.13;4984541;28;20228;-76
2022/12/26 06:36:15;;;;;;;0.00;0.00;;;10.70;99.90;;;11.08;100.00;99969.09;4992177;28;20263;-75
2022/12/26 06:38:42;;;;;;;0.00;0.00;;;10.90;99.90;;;11.39;100.00;99985.84;4973442;28;20261;-76
2022/12/26 06:41:14;;;;;;;0.00;0.00;;;11.20;99.90;;;11.21;100.00;99981.44;4979993;28;20295;-76
2022/12/26 06:43:42;;;;;;;0.00;0.00;;;11.10;99.90;;;11.39;100.00;100003.50;4989867;28;20229;-75
2022/12/26 06:46:14;;;;;;;0.30;0.30;;;11.20;99.90;;;11.46;100.00;99999.94;4973360;28;20575;-75
2022/12/26 06:48:41;;;;;;;0.00;0.00;;;11.30;99.90;;;11.32;100.00;99997.31;4986483;28;20294;-75
2022/12/26 06:51:12;;;;;;;0.00;0.00;;;11.30;99.90;;;11.36;100.00;100004.38;4997871;28;20316;-75
2022/12/26 06:53:40;;;;;;;0.10;0.10;;;11.30;99.90;;;11.24;100.00;99985.84;4972822;28;20315;-75
2022/12/26 06:56:14;;;;;;;0.00;0.00;;;11.20;99.90;;;11.14;100.00;99979.69;4986042;28;20323;-75
2022/12/26 06:58:42;;;;;;;0.00;0.00;;;11.10;99.90;;;11.14;100.00;99986.75;4986015;28;20225;-75
2022/12/26 07:01:15;;;;;;;0.00;0.00;;;11.10;99.90;;;11.05;100.00;99986.75;4984756;28;20704;-75
2022/12/26 07:03:44;;;;;;;0.00;0.00;;;11.10;99.90;;;11.06;100.00;100002.63;4992040;28;20229;-76
2022/12/26 07:06:28;;;;;;;0.00;0.00;;;11.00;99.90;;;10.99;100.00;99989.41;4991229;28;20672;-75
2022/12/26 07:09:21;;;;;;;0.00;0.00;;;11.00;99.90;;;10.82;100.00;99981.44;4985050;28;20287;-75
2022/12/26 07:11:51;;;;;;;0.00;0.00;;;10.80;99.90;;;10.74;100.00;99983.22;4971671;28;20237;-74
2022/12/26 07:14:18;;;;;;;0.10;0.10;;;10.70;99.90;;;10.79;100.00;99997.31;4972088;28;20245;-75
2022/12/26 07:16:45;;;;;;;0.00;0.00;;;10.70;99.90;;;10.74;100.00;99994.66;4974181;28;20256;-75
2022/12/26 07:19:14;;;;;;;0.00;0.00;;;10.70;99.90;;;10.68;100.00;99996.44;4989978;28;20824;-75
2022/12/26 07:21:42;;;;;;;0.00;0.00;;;10.70;99.90;;;10.63;100.00;100008.75;4991146;28;20287;-75
2022/12/26 07:24:21;;;;;;;0.00;0.00;;;10.60;99.90;;;10.53;100.00;100019.31;4990406;28;20255;-76
2022/12/26 07:26:49;;;;;;;0.00;0.00;;;10.50;99.90;;;10.39;100.00;100020.13;4989317;28;20243;-75
2022/12/26 07:29:16;;;;;;;0.00;0.00;;;10.40;99.90;;;10.49;100.00;100049.25;4974885;28;20248;-75
2022/12/26 07:31:43;;;;;;;0.00;0.00;;;10.40;99.90;;;10.40;100.00;100051.88;4978105;28;20323;-75
2022/12/26 07:34:11;;;;;;;0.00;0.00;;;10.40;99.90;;;10.58;100.00;100064.28;4976448;28;20233;-75
2022/12/26 07:36:39;;;;;;;0.10;0.10;;;10.50;99.90;;;10.62;100.00;100063.41;4987928;28;20225;-75
2022/12/26 07:39:06;;;;;;;0.00;0.00;;;10.50;99.90;;;10.64;100.00;100051.06;4983884;28;20243;-74
2022/12/26 07:44:19;;;;;;;0.20;0.20;;;10.60;99.90;;;10.85;100.00;100047.59;4974322;28;20224;-75
2022/12/26 07:46:46;;;;;;;0.10;0.10;;;10.80;99.90;;;11.15;100.00;100058.19;4974494;28;20231;-75
2022/12/26 07:49:13;;;;;;;0.00;0.00;;;11.10;99.90;;;11.18;100.00;100050.25;4990920;28;20295;-75
2022/12/26 07:51:41;;;;;;;0.00;0.00;;;11.10;99.90;;;11.27;100.00;100048.50;4990949;28;20232;-75
2022/12/26 07:54:09;;;;;;;0.00;0.00;;;11.20;99.90;;;11.34;100.00;100045.84;4991255;28;20224;-75
2022/12/26 07:56:39;;;;;;;0.00;0.00;;;11.30;99.90;;;11.42;100.00;100053.78;4990882;28;20252;-75
2022/12/26 07:59:07;;;;;;;0.00;0.00;;;11.30;99.90;;;11.39;100.00;100035.25;4990912;28;20263;-75
2022/12/26 08:01:34;;;;;;;0.00;0.00;;;11.40;99.90;;;11.30;100.00;100043.22;4991408;28;20267;-75
2022/12/26 08:04:01;;;;;;;0.00;0.00;;;11.30;99.90;;;11.44;100.00;100054.66;4986341;28;20333;-75
2022/12/26 08:06:28;;;;;;;0.00;0.00;;;11.30;99.90;;;11.34;100.00;100050.25;4978917;28;20267;-76
2022/12/26 08:08:55;;;;;;;0.00;0.00;;;11.30;99.90;;;11.37;100.00;100058.19;4977500;28;20733;-76
2022/12/26 08:11:23;;;;;;;0.10;0.10;;;11.30;99.90;;;11.26;100.00;100059.97;4990484;28;20237;-76
2022/12/26 08:13:51;;;;;;;0.00;0.00;;;11.30;99.90;;;11.17;100.00;100064.38;4988080;28;20220;-76
2022/12/26 08:16:19;;;;;;;0.00;0.00;;;11.10;99.90;;;11.34;100.00;100074.09;4971125;28;20233;-76
2022/12/26 08:18:46;;;;;;;0.00;0.00;;;11.20;99.90;;;11.15;100.00;100076.72;4979457;28;20250;-76
2022/12/26 08:21:14;;;;;;;0.00;0.00;;;11.10;99.90;;;11.14;100.00;100079.38;4985940;28;20240;-76
2022/12/26 08:23:41;;;;;;;0.00;0.00;;;11.10;99.90;;;11.05;100.00;100089.94;4980775;28;20233;-76
2022/12/26 08:26:12;;;;;;;0.00;0.00;;;11.00;99.90;;;10.95;100.00;100104.03;4989845;28;20287;-76
2022/12/26 08:28:39;;;;;;;0.00;0.00;;;10.90;99.90;;;11.05;100.00;100104.06;4967080;28;20240;-76
2022/12/26 08:31:19;;;;;;;0.10;0.10;;;11.00;99.90;;;11.19;100.00;100114.66;4983997;28;20237;-77
2022/12/26 08:33:47;;;;;;;0.30;0.30;;;11.10;99.90;;;11.08;100.00;100108.47;4971462;28;20233;-78
2022/12/26 08:36:17;;;;;;;0.20;0.20;;;11.00;99.90;;;11.04;100.00;100101.41;4973845;28;20430;-78
2022/12/26 08:38:44;;;;;;;0.50;0.50;;;11.00;99.90;;;11.05;100.00;100105.81;4963176;28;20237;-78
2022/12/26 08:41:11;;;;;;;0.17;0.17;;;11.00;99.90;;;11.04;100.00;100101.41;4978113;28;20775;-78
2022/12/26 08:43:38;;;;;;;0.10;0.10;;;11.00;99.90;;;11.01;100.00;100090.81;4988846;28;20235;-78
2022/12/26 08:46:26;;;;;;;0.20;0.20;;;11.00;99.90;;;11.00;100.00;100089.94;4978635;28;20235;-78
2022/12/26 08:48:53;;;;;;;0.00;0.00;;;11.00;99.90;;;11.06;100.00;100086.41;4970388;28;20236;-78
2022/12/26 08:51:23;;;;;;;0.20;0.20;;;11.00;99.90;;;10.99;100.00;100063.47;4960487;28;20247;-77
2022/12/26 08:53:53;;;;;;;0.20;0.20;;;11.00;99.90;;;11.01;100.00;100070.53;4975295;28;20233;-77
2022/12/26 08:56:24;;;;;;;0.30;0.30;;;11.00;99.90;;;10.96;100.00;100053.78;4967831;28;20240;-78
2022/12/26 08:58:51;;;;;;;0.30;0.30;;;11.00;99.90;;;10.92;100.00;100049.34;4986430;28;20233;-78
2022/12/26 09:01:27;;;;;;;0.28;0.28;;;10.80;99.90;;;10.88;100.00;100051.13;4984915;28;20240;-78
2022/12/26 09:04:00;;;;;;;0.43;0.20;;;10.80;99.90;;;10.93;100.00;100058.19;4982114;28;20223;-77
2022/12/26 09:06:31;;;;;;;0.10;0.10;;;10.90;99.90;;;10.87;100.00;100054.66;4983865;28;20600;-78
2022/12/26 09:08:59;;;;;;;0.30;0.30;;;10.80;99.90;;;10.78;100.00;100074.91;4989530;28;20263;-77
2022/12/26 09:11:27;;;;;;;0.20;0.20;;;10.80;99.90;;;10.75;100.00;100081.06;4991800;28;20516;-78
2022/12/26 09:13:57;;;;;;;0.10;0.10;;;10.80;99.90;;;10.84;100.00;100104.91;4982075;28;20229;-79
2022/12/26 09:16:30;;;;;;;0.10;0.10;;;10.80;99.90;;;10.96;100.00;100106.69;4982144;28;20225;-79
2022/12/26 09:19:05;;;;;;;0.10;0.10;;;10.90;99.90;;;10.98;100.00;100082.88;4984952;28;20228;-78
2022/12/26 09:21:32;;;;;;;0.00;0.00;;;10.90;99.90;;;11.04;100.00;100083.78;4985479;28;20237;-78
2022/12/26 09:24:03;;;;;;;0.10;0.10;;;11.00;99.90;;;10.98;100.00;100073.19;4982133;28;20265;-78
2022/12/26 09:26:31;;;;;;;0.20;0.20;;;11.00;99.90;;;11.06;100.00;100075.84;4985123;28;20233;-78
2022/12/26 09:28:59;;;;;;;0.10;0.10;;;11.00;99.90;;;11.00;100.00;100073.19;4984456;28;20240;-78
2022/12/26 09:31:29;;;;;;;0.10;0.10;;;11.60;99.90;;;10.96;100.00;100074.94;4983264;28;20261;-78
2022/12/26 09:33:57;;;;;;;0.13;0.13;;;10.90;99.90;;;10.94;100.00;100066.13;4981808;28;20282;-78
2022/12/26 09:36:31;;;;;;;0.10;0.10;;;10.90;99.90;;;11.02;100.00;100085.53;4982306;28;20278;-78
2022/12/26 09:38:59;;;;;;;0.00;0.00;;;10.90;99.90;;;11.03;100.00;100115.53;4979123;28;20244;-78
2022/12/26 09:42:07;;;;;;;0.00;0.00;;;11.00;99.90;;;11.04;100.00;100128.75;4979271;28;20263;-78
2022/12/26 09:44:52;;;;;;;0.00;0.00;;;11.00;99.90;;;11.00;100.00;100113.75;4995323;28;20228;-78
2022/12/26 09:47:32;;;;;;;0.00;0.00;;;11.00;99.90;;;11.05;100.00;100117.28;4984392;28;20296;-79
2022/12/26 09:50:08;;;;;;;0.10;0.10;;;11.00;99.90;;;11.09;100.00;100116.41;4982680;28;20775;-78
2022/12/26 09:52:54;;;;;;;0.10;0.10;;;11.10;99.90;;;11.27;100.00;100122.63;4982761;28;20259;-78
2022/12/26 09:55:50;;;;;;;0.10;0.10;;;11.20;99.90;;;11.28;100.00;100097.91;4977857;28;20224;-78
2022/12/26 09:58:28;;;;;;;0.00;0.00;;;11.20;99.90;;;11.25;100.00;100096.16;4985688;28;20248;-79
2022/12/26 10:01:15;;;;;;;0.10;0.10;;;11.20;99.90;;;11.29;100.00;100083.78;4985403;28;20244;-78
2022/12/26 10:03:51;;;;;;;0.10;0.10;;;11.20;99.90;;;11.37;100.00;100092.63;4983598;28;20267;-78
2022/12/26 10:06:46;;;;;;;0.10;0.10;;;11.30;99.90;;;11.36;100.00;100098.81;4980949;28;20232;-78
2022/12/26 10:10:01;;;;;;;0.00;0.00;;;11.30;99.90;;;11.39;100.00;100112.91;4987081;28;20256;-77
2022/12/26 10:12:59;;;;;;;0.00;0.00;;;11.30;99.90;;;11.50;100.00;100112.91;4986658;28;20284;-78
2022/12/26 10:15:58;;;;;;;0.10;0.10;;;11.40;99.90;;;11.48;100.00;100096.16;4980875;28;20236;-78
2022/12/26 10:18:53;;;;;;;0.10;0.10;;;11.50;99.90;;;11.54;100.00;100112.03;4986872;28;20240;-78
2022/12/26 10:21:37;;;;;;;0.10;0.10;;;11.40;99.90;;;11.58;100.00;100102.31;4998299;28;20240;-78
2022/12/26 10:24:17;;;;;;;0.00;0.00;;;11.50;99.90;;;11.58;100.00;100103.22;4986223;28;20260;-78
2022/12/26 10:26:56;;;;;;;0.00;0.00;;;11.50;99.90;;;11.65;100.00;100096.16;4987964;28;20231;-78
2022/12/26 10:29:36;;;;;;;0.10;0.10;;;11.60;99.90;;;11.66;100.00;100108.50;4996376;28;20327;-78
2022/12/26 10:32:21;;;;;;;0.10;0.10;;;11.60;99.90;;;11.74;100.00;100127.97;4975762;28;20313;-78
2022/12/26 10:34:54;;;;;;;0.00;0.00;;;11.70;99.90;;;11.79;100.00;100134.16;4984914;28;20228;-77
2022/12/26 10:37:40;;;;;;;0.10;0.10;;;11.70;99.90;;;11.78;100.00;100137.69;4971476;28;20687;-78
2022/12/26 10:40:32;;;;;;;0.00;0.00;;;11.70;99.90;;;11.84;100.00;100138.56;4978809;28;20323;-77
2022/12/26 10:43:21;;;;;;;0.15;0.15;;;11.70;99.90;;;11.89;100.00;100132.41;4983031;28;20311;-78
2022/12/26 10:46:00;;;;;;;0.00;0.00;;;11.80;99.90;;;11.89;100.00;100114.72;4984941;28;20236;-78
2022/12/26 10:48:28;;;;;;;0.25;0.20;;;11.80;99.90;;;11.94;100.00;100133.28;4988920;28;20291;-78
2022/12/26 10:50:55;;;;;;;0.10;0.10;;;11.90;99.90;;;11.94;100.00;100142.09;4996243;28;20236;-78
2022/12/26 10:53:22;;;;;;;0.10;0.10;;;11.90;99.90;;;11.94;100.00;100144.75;4973395;28;20237;-77
2022/12/26 10:55:49;;;;;;;0.03;0.03;;;11.90;99.90;;;11.98;100.00;100142.97;4973650;28;20284;-78
2022/12/26 10:58:35;;;;;;;0.00;0.00;;;11.90;99.90;;;11.98;100.00;100146.50;4977939;28;20224;-78
2022/12/26 11:01:27;;;;;;;0.10;0.10;;;11.90;99.90;;;12.10;100.00;100120.00;4983202;28;20232;-79
2022/12/26 11:04:01;;;;;;;0.10;0.10;;;12.00;99.90;;;12.02;100.00;100112.94;4983837;28;20684;-78
2022/12/26 11:06:37;;;;;;;0.08;0.08;;;12.00;99.90;;;12.08;100.00;100131.47;4982937;28;20320;-79
2022/12/26 11:09:05;;;;;;;0.10;0.10;;;12.00;99.90;;;12.13;100.00;100141.19;4981479;28;20720;-78
2022/12/26 11:11:47;;;;;;;0.10;0.10;;;12.00;99.90;;;12.15;100.00;100146.47;4982440;28;20256;-78
2022/12/26 11:14:34;;;;;;;0.10;0.10;;;12.10;99.90;;;12.13;100.00;100137.66;4986114;28;20245;-77
2022/12/26 11:17:29;;;;;;;0.55;0.55;;;12.00;99.90;;;12.17;100.00;100131.47;4984722;28;20228;-78
2022/12/26 11:20:24;;;;;;;0.10;0.10;;;12.10;99.90;;;12.14;100.00;100137.66;4979780;28;20654;-78
2022/12/26 11:22:52;;;;;;;0.10;0.10;;;12.10;99.90;;;12.15;100.00;100128.81;4984662;28;20229;-78
2022/12/26 11:25:26;;;;;;;0.10;0.10;;;12.10;99.90;;;12.11;100.00;100120.88;4985528;28;20275;-78
2022/12/26 11:27:58;;;;;;;0.10;0.10;;;12.00;99.90;;;12.14;100.00;100126.16;4979155;28;20312;-78
2022/12/26 11:30:32;;;;;;;0.10;0.10;;;12.00;99.90;;;12.21;100.00;100114.66;4987267;28;20287;-78
2022/12/26 11:33:34;;;;;;;0.73;0.43;;;12.10;99.90;;;12.24;100.00;100122.59;4983743;28;20227;-78
2022/12/26 11:36:15;;;;;;;0.10;0.10;;;12.20;99.90;;;12.28;100.00;100113.75;4978557;28;20347;-77
2022/12/26 11:38:48;;;;;;;0.10;0.10;;;12.20;99.90;;;12.35;100.00;100120.81;4987283;28;20244;-79
2022/12/26 11:41:30;;;;;;;0.10;0.10;;;12.20;99.90;;;12.43;99.16;100113.69;4982236;28;20240;-78
2022/12/26 11:44:25;;;;;;;0.10;0.10;;;12.30;99.90;;;12.40;99.08;100100.44;4984463;28;20307;-79
2022/12/26 11:46:55;;;;;;;0.17;0.17;;;12.30;99.90;;;12.38;98.10;100091.63;4988611;28;20248;-79
2022/12/26 11:49:48;;;;;;;0.20;0.20;;;12.30;99.90;;;12.28;99.51;100084.59;4992838;28;20247;-78
2022/12/26 11:52:36;;;;;;;0.20;0.20;;;12.20;99.90;;;12.19;100.00;100087.28;5005272;28;20293;-78
2022/12/26 11:55:32;;;;;;;0.20;0.20;;;12.10;99.90;;;12.21;100.00;100093.44;5001673;28;20229;-79
2022/12/26 11:58:05;;;;;;;0.20;0.20;;;12.10;99.90;;;12.32;100.00;100104.91;4976192;28;20250;-78
2022/12/26 12:00:38;;;;;;;0.20;0.20;;;12.20;99.90;;;12.34;100.00;100102.25;4971008;28;20249;-78
2022/12/26 12:03:57;;;;;;;0.15;0.15;;;12.20;99.90;;;12.37;100.00;100100.47;4983600;28;20280;-78
2022/12/26 12:06:42;;;;;;;0.40;0.40;;;12.40;99.90;;;12.53;99.53;100087.13;4972051;28;20236;-78
2022/12/26 12:09:20;;;;;;;0.20;0.20;;;12.40;99.90;;;12.54;99.33;100081.84;4989105;28;20286;-78
2022/12/26 12:11:56;;;;;;;0.32;0.32;;;12.40;99.90;;;12.50;99.08;100080.97;4987493;28;20232;-78
2022/12/26 12:14:56;;;;;;;0.68;0.50;;;12.40;99.90;;;12.48;99.63;100072.13;4966328;28;20231;-79
2022/12/26 12:17:44;;;;;;;0.32;0.30;;;12.40;99.90;;;12.53;99.07;100076.53;4988687;28;20232;-78
2022/12/26 12:20:35;;;;;;;0.17;0.17;;;12.40;99.90;;;12.53;98.42;100069.47;4989723;28;20251;-79
2022/12/26 12:23:48;;;;;;;0.30;0.20;;;12.40;99.90;;;12.57;98.74;100068.56;4975228;28;20311;-78
2022/12/26 12:26:41;;;;;;;0.20;0.20;;;12.50;99.90;;;12.67;96.81;100048.16;4971429;28;20303;-78
2022/12/26 12:30:08;;;;;;;0.30;0.30;;;12.60;99.90;;;12.65;96.50;100032.25;4971680;28;20291;-79
2022/12/26 12:32:50;;;;;;;0.35;0.30;;;12.60;99.90;;;12.62;96.00;100019.00;4977177;28;20776;-79
2022/12/26 12:36:11;;;;;;;0.15;0.15;;;12.60;99.90;;;12.61;95.63;100016.38;4972191;28;20232;-78
2022/12/26 12:39:10;;;;;;;0.40;0.30;;;12.50;99.90;;;12.59;94.88;100013.72;4979691;28;20247;-78
2022/12/26 12:42:04;;;;;;;0.10;0.10;;;12.50;99.90;;;12.58;93.79;100004.00;4978912;28;20256;-78
2022/12/26 12:44:58;;;;;;;0.20;0.20;;;12.50;99.90;;;12.60;92.84;99974.81;5009816;28;20235;-78
2022/12/26 12:47:58;;;;;;;0.50;0.35;;;12.50;99.90;;;12.55;92.36;99974.84;4991480;28;20257;-78
2022/12/26 12:50:59;;;;;;;0.43;0.40;;;12.50;99.90;;;12.53;92.61;99991.66;4990876;28;20266;-78
2022/12/26 12:53:36;;;;;;;0.10;0.10;;;12.40;99.90;;;12.53;91.88;99970.44;4971918;28;20232;-78